VCBI/CMB METAR and TAF weather

Enter ICAO airport designator
Station Type Date Time Source
VCBI METAR 2019/06/17 04:10 UTC NOAA

VCBI 170410Z 24009KT 9999 SCT018 31/26 Q1011 NOSIG


Station Type Date Time Source
VCBI Decoded METAR 2019/06/17 04:10 UTC NOAA

Katunayake, Sri Lanka (VCBI) 07-10N 079-53E 8M
Jun 17, 2019 - 12:10 AM EDT / 2019.06.17 0410 UTC
Wind: from the WSW (240 degrees) at 10 MPH (9 KT):0
Visibility: greater than 7 mile(s):0
Sky conditions: partly cloudy
Temperature: 87 F (31 C)
Heat index: 99.7 F (37.6 C):1
Dew Point: 78 F (26 C)
Relative Humidity: 74%
Pressure (altimeter): 29.85 in. Hg (1011 hPa)
ob: VCBI 170410Z 24009KT 9999 SCT018 31/26 Q1011 NOSIG
cycle: 4

Station Type Date Time Source
VCBI TAF 2019/06/17 06:09 UTC NOAA

TAF TAF VCBI 170500Z 1706/1812 24012KT 9999 SCT018 TX30/1708Z TN25/1800Z PROB30
TEMPO 1710/1716 6000 -TSRA/SHRA FEW012 BKN016 FEW020CB

Example: see airport list